sensor_id;sensor_type;location;lat;lon;timestamp;temperature;humidity
8180;DHT22;4131;48.810;11.892;2023-03-05T00:04:06;0.60;99.90
8180;DHT22;4131;48.810;11.892;2023-03-05T00:09:06;0.30;99.90
8180;DHT22;4131;48.810;11.892;2023-03-05T00:24:45;0.30;99.90
8180;DHT22;4131;48.810;11.892;2023-03-05T00:27:13;0.30;99.90
8180;DHT22;4131;48.810;11.892;2023-03-05T00:42:05;0.40;99.90
8180;DHT22;4131;48.810;11.892;2023-03-05T00:59:28;0.40;99.90
8180;DHT22;4131;48.810;11.892;2023-03-05T01:14:20;0.40;99.90
8180;DHT22;4131;48.810;11.892;2023-03-05T01:16:49;0.40;99.90
8180;DHT22;4131;48.810;11.892;2023-03-05T01:26:43;0.40;99.90
8180;DHT22;4131;48.810;11.892;2023-03-05T01:34:10;0.40;99.90
8180;DHT22;4131;48.810;11.892;2023-03-05T01:36:40;0.40;99.90
8180;DHT22;4131;48.810;11.892;2023-03-05T01:46:34;0.40;99.90
8180;DHT22;4131;48.810;11.892;2023-03-05T01:49:12;0.40;99.90
8180;DHT22;4131;48.810;11.892;2023-03-05T01:51:48;0.40;99.90
8180;DHT22;4131;48.810;11.892;2023-03-05T01:54:20;0.40;99.90
8180;DHT22;4131;48.810;11.892;2023-03-05T01:56:51;0.40;99.90
8180;DHT22;4131;48.810;11.892;2023-03-05T01:59:21;0.40;99.90
8180;DHT22;4131;48.810;11.892;2023-03-05T02:01:53;0.40;99.90
8180;DHT22;4131;48.810;11.892;2023-03-05T02:04:29;0.40;99.90
8180;DHT22;4131;48.810;11.892;2023-03-05T02:19:25;0.40;99.90
8180;DHT22;4131;48.810;11.892;2023-03-05T02:21:55;0.40;99.90
8180;DHT22;4131;48.810;11.892;2023-03-05T02:24:34;0.40;99.90
8180;DHT22;4131;48.810;11.892;2023-03-05T02:27:04;0.40;99.90
8180;DHT22;4131;48.810;11.892;2023-03-05T02:29:33;0.40;99.90
8180;DHT22;4131;48.810;11.892;2023-03-05T02:37:01;0.40;99.90
8180;DHT22;4131;48.810;11.892;2023-03-05T02:51:54;0.40;99.90
8180;DHT22;4131;48.810;11.892;2023-03-05T02:54:24;0.30;99.90
8180;DHT22;4131;48.810;11.892;2023-03-05T03:11:45;0.30;99.90
8180;DHT22;4131;48.810;11.892;2023-03-05T03:16:41;0.30;99.90
8180;DHT22;4131;48.810;11.892;2023-03-05T03:19:09;0.30;99.90
8180;DHT22;4131;48.810;11.892;2023-03-05T03:21:39;0.30;99.90
8180;DHT22;4131;48.810;11.892;2023-03-05T03:24:07;0.30;99.90
8180;DHT22;4131;48.810;11.892;2023-03-05T03:26:35;0.30;99.90
8180;DHT22;4131;48.810;11.892;2023-03-05T03:29:05;0.30;99.90
8180;DHT22;4131;48.810;11.892;2023-03-05T03:31:33;0.30;99.90
8180;DHT22;4131;48.810;11.892;2023-03-05T03:38:59;0.30;99.90
8180;DHT22;4131;48.810;11.892;2023-03-05T03:46:27;0.20;99.90
8180;DHT22;4131;48.810;11.892;2023-03-05T03:53:52;0.30;99.90
8180;DHT22;4131;48.810;11.892;2023-03-05T04:03:47;0.20;99.90
8180;DHT22;4131;48.810;11.892;2023-03-05T04:19:40;0.30;99.90
8180;DHT22;4131;48.810;11.892;2023-03-05T04:24:56;0.30;99.90
8180;DHT22;4131;48.810;11.892;2023-03-05T04:32:21;0.30;99.90
8180;DHT22;4131;48.810;11.892;2023-03-05T04:34:55;0.30;99.90
8180;DHT22;4131;48.810;11.892;2023-03-05T04:37:24;0.30;99.90
8180;DHT22;4131;48.810;11.892;2023-03-05T04:39:53;0.30;99.90
8180;DHT22;4131;48.810;11.892;2023-03-05T04:44:50;0.30;99.90
8180;DHT22;4131;48.810;11.892;2023-03-05T04:47:18;0.30;99.90
8180;DHT22;4131;48.810;11.892;2023-03-05T04:52:16;0.30;99.90
8180;DHT22;4131;48.810;11.892;2023-03-05T04:59:41;0.30;99.90
8180;DHT22;4131;48.810;11.892;2023-03-05T05:02:09;0.30;99.90
8180;DHT22;4131;48.810;11.892;2023-03-05T05:09:37;0.30;99.90
8180;DHT22;4131;48.810;11.892;2023-03-05T05:12:06;0.30;99.90
8180;DHT22;4131;48.810;11.892;2023-03-05T05:14:34;0.30;99.90
8180;DHT22;4131;48.810;11.892;2023-03-05T05:22:00;0.20;99.90
8180;DHT22;4131;48.810;11.892;2023-03-05T05:24:28;0.20;99.90
8180;DHT22;4131;48.810;11.892;2023-03-05T05:26:57;1.70;99.90
8180;DHT22;4131;48.810;11.892;2023-03-05T05:29:25;0.20;99.90
8180;DHT22;4131;48.810;11.892;2023-03-05T05:34:22;0.10;99.90
8180;DHT22;4131;48.810;11.892;2023-03-05T05:36:51;0.20;99.90
8180;DHT22;4131;48.810;11.892;2023-03-05T05:39:19;0.20;99.90
8180;DHT22;4131;48.810;11.892;2023-03-05T05:41:49;0.20;99.90
8180;DHT22;4131;48.810;11.892;2023-03-05T05:44:19;0.20;99.90
8180;DHT22;4131;48.810;11.892;2023-03-05T05:54:13;0.10;99.90
8180;DHT22;4131;48.810;11.892;2023-03-05T05:59:09;0.20;99.90
8180;DHT22;4131;48.810;11.892;2023-03-05T06:01:39;0.20;99.90
8180;DHT22;4131;48.810;11.892;2023-03-05T06:06:35;0.20;99.90
8180;DHT22;4131;48.810;11.892;2023-03-05T06:09:04;0.20;99.90
8180;DHT22;4131;48.810;11.892;2023-03-05T06:14:00;0.20;99.90
8180;DHT22;4131;48.810;11.892;2023-03-05T06:18:59;0.30;99.90
8180;DHT22;4131;48.810;11.892;2023-03-05T06:31:26;0.30;99.90
8180;DHT22;4131;48.810;11.892;2023-03-05T06:33:55;0.30;99.90
8180;DHT22;4131;48.810;11.892;2023-03-05T06:36:25;0.30;99.90
8180;DHT22;4131;48.810;11.892;2023-03-05T06:41:23;0.30;99.90
8180;DHT22;4131;48.810;11.892;2023-03-05T06:43:53;0.30;99.90
8180;DHT22;4131;48.810;11.892;2023-03-05T06:46:23;0.40;99.90
8180;DHT22;4131;48.810;11.892;2023-03-05T06:48:54;0.40;99.90
8180;DHT22;4131;48.810;11.892;2023-03-05T06:51:26;0.40;99.90
8180;DHT22;4131;48.810;11.892;2023-03-05T06:53:57;0.50;99.90
8180;DHT22;4131;48.810;11.892;2023-03-05T06:56:26;0.50;99.90
8180;DHT22;4131;48.810;11.892;2023-03-05T06:58:54;0.60;99.90
8180;DHT22;4131;48.810;11.892;2023-03-05T07:01:22;0.60;99.90
8180;DHT22;4131;48.810;11.892;2023-03-05T07:03:52;0.60;99.90
8180;DHT22;4131;48.810;11.892;2023-03-05T07:06:21;0.70;99.90
8180;DHT22;4131;48.810;11.892;2023-03-05T07:08:53;0.70;99.90
8180;DHT22;4131;48.810;11.892;2023-03-05T07:11:22;0.70;99.90
8180;DHT22;4131;48.810;11.892;2023-03-05T07:16:21;0.70;99.90
8180;DHT22;4131;48.810;11.892;2023-03-05T07:18:49;0.80;99.90
8180;DHT22;4131;48.810;11.892;2023-03-05T07:21:20;0.80;99.90
8180;DHT22;4131;48.810;11.892;2023-03-05T07:23:51;0.90;99.90
8180;DHT22;4131;48.810;11.892;2023-03-05T07:26:20;0.90;99.90
8180;DHT22;4131;48.810;11.892;2023-03-05T07:28:49;0.90;99.90
8180;DHT22;4131;48.810;11.892;2023-03-05T07:31:20;0.90;99.90
8180;DHT22;4131;48.810;11.892;2023-03-05T07:38:52;4.00;99.90
8180;DHT22;4131;48.810;11.892;2023-03-05T07:43:50;1.10;99.90
8180;DHT22;4131;48.810;11.892;2023-03-05T07:46:21;1.00;99.90
8180;DHT22;4131;48.810;11.892;2023-03-05T07:51:21;1.00;99.90
8180;DHT22;4131;48.810;11.892;2023-03-05T07:53:53;1.40;99.90
8180;DHT22;4131;48.810;11.892;2023-03-05T07:56:25;1.10;99.90
8180;DHT22;4131;48.810;11.892;2023-03-05T08:11:19;1.30;99.90
8180;DHT22;4131;48.810;11.892;2023-03-05T08:16:18;1.30;99.90
8180;DHT22;4131;48.810;11.892;2023-03-05T08:21:17;1.40;99.90
8180;DHT22;4131;48.810;11.892;2023-03-05T08:26:16;1.40;99.90
8180;DHT22;4131;48.810;11.892;2023-03-05T08:28:46;1.30;99.90
8180;DHT22;4131;48.810;11.892;2023-03-05T08:31:15;1.40;99.90
8180;DHT22;4131;48.810;11.892;2023-03-05T08:46:12;1.50;99.90
8180;DHT22;4131;48.810;11.892;2023-03-05T08:51:10;1.50;99.90
8180;DHT22;4131;48.810;11.892;2023-03-05T08:58:37;1.50;99.90
8180;DHT22;4131;48.810;11.892;2023-03-05T09:03:35;1.60;99.90
8180;DHT22;4131;48.810;11.892;2023-03-05T09:06:08;1.60;99.90
8180;DHT22;4131;48.810;11.892;2023-03-05T09:11:07;1.70;99.90
8180;DHT22;4131;48.810;11.892;2023-03-05T09:16:06;2.40;99.90
8180;DHT22;4131;48.810;11.892;2023-03-05T09:18:36;1.70;99.90
8180;DHT22;4131;48.810;11.892;2023-03-05T09:21:07;1.80;99.90
8180;DHT22;4131;48.810;11.892;2023-03-05T09:28:32;1.80;99.90
8180;DHT22;4131;48.810;11.892;2023-03-05T09:31:01;1.90;99.90
8180;DHT22;4131;48.810;11.892;2023-03-05T09:36:00;2.20;99.90
8180;DHT22;4131;48.810;11.892;2023-03-05T09:41:00;2.50;99.90
8180;DHT22;4131;48.810;11.892;2023-03-05T09:43:41;2.50;99.90
8180;DHT22;4131;48.810;11.892;2023-03-05T09:46:25;2.50;99.90
8180;DHT22;4131;48.810;11.892;2023-03-05T09:48:59;2.60;99.90
8180;DHT22;4131;48.810;11.892;2023-03-05T09:51:37;2.60;99.90
8180;DHT22;4131;48.810;11.892;2023-03-05T09:54:12;2.60;99.90
8180;DHT22;4131;48.810;11.892;2023-03-05T09:56:44;2.80;99.90
8180;DHT22;4131;48.810;11.892;2023-03-05T09:59:22;2.90;99.90
8180;DHT22;4131;48.810;11.892;2023-03-05T10:01:55;3.60;99.90
8180;DHT22;4131;48.810;11.892;2023-03-05T10:04:27;3.30;99.90
8180;DHT22;4131;48.810;11.892;2023-03-05T10:07:00;3.20;99.90
8180;DHT22;4131;48.810;11.892;2023-03-05T10:09:44;3.70;99.90
8180;DHT22;4131;48.810;11.892;2023-03-05T10:12:19;1.80;99.90
8180;DHT22;4131;48.810;11.892;2023-03-05T10:14:54;3.30;99.90
8180;DHT22;4131;48.810;11.892;2023-03-05T10:17:48;3.30;99.90
8180;DHT22;4131;48.810;11.892;2023-03-05T10:20:48;3.30;99.90
8180;DHT22;4131;48.810;11.892;2023-03-05T10:23:28;3.20;99.90
8180;DHT22;4131;48.810;11.892;2023-03-05T10:26:03;3.20;99.90
8180;DHT22;4131;48.810;11.892;2023-03-05T10:28:49;3.20;99.90
8180;DHT22;4131;48.810;11.892;2023-03-05T10:31:42;3.20;99.90
8180;DHT22;4131;48.810;11.892;2023-03-05T10:37:32;3.30;99.90
8180;DHT22;4131;48.810;11.892;2023-03-05T10:40:28;3.30;99.90
8180;DHT22;4131;48.810;11.892;2023-03-05T10:43:11;3.20;99.90
8180;DHT22;4131;48.810;11.892;2023-03-05T10:45:42;3.20;99.90
8180;DHT22;4131;48.810;11.892;2023-03-05T10:48:33;2.60;99.90
8180;DHT22;4131;48.810;11.892;2023-03-05T10:51:19;3.00;99.90
8180;DHT22;4131;48.810;11.892;2023-03-05T10:53:58;3.10;99.90
8180;DHT22;4131;48.810;11.892;2023-03-05T10:56:29;3.20;99.90
8180;DHT22;4131;48.810;11.892;2023-03-05T11:01:28;3.40;99.90
8180;DHT22;4131;48.810;11.892;2023-03-05T11:03:59;3.40;99.90
8180;DHT22;4131;48.810;11.892;2023-03-05T11:06:35;3.60;99.90
8180;DHT22;4131;48.810;11.892;2023-03-05T11:09:22;3.60;99.90
8180;DHT22;4131;48.810;11.892;2023-03-05T11:12:19;3.60;99.90
8180;DHT22;4131;48.810;11.892;2023-03-05T11:15:02;3.50;99.90
8180;DHT22;4131;48.810;11.892;2023-03-05T11:17:33;5.00;99.90
8180;DHT22;4131;48.810;11.892;2023-03-05T11:20:31;3.50;99.90
8180;DHT22;4131;48.810;11.892;2023-03-05T11:23:07;3.50;99.90
8180;DHT22;4131;48.810;11.892;2023-03-05T11:25:51;3.30;99.90
8180;DHT22;4131;48.810;11.892;2023-03-05T11:28:23;3.30;99.90
8180;DHT22;4131;48.810;11.892;2023-03-05T11:31:03;3.30;99.90
8180;DHT22;4131;48.810;11.892;2023-03-05T11:33:34;3.20;99.90
8180;DHT22;4131;48.810;11.892;2023-03-05T11:36:23;3.20;99.90
8180;DHT22;4131;48.810;11.892;2023-03-05T11:38:54;3.20;99.90
8180;DHT22;4131;48.810;11.892;2023-03-05T11:41:28;3.30;99.90
8180;DHT22;4131;48.810;11.892;2023-03-05T11:44:00;3.30;99.90
8180;DHT22;4131;48.810;11.892;2023-03-05T11:46:37;3.40;99.90
8180;DHT22;4131;48.810;11.892;2023-03-05T11:51:40;3.40;99.90
8180;DHT22;4131;48.810;11.892;2023-03-05T11:54:18;3.40;99.90
8180;DHT22;4131;48.810;11.892;2023-03-05T11:59:27;1.60;99.90
8180;DHT22;4131;48.810;11.892;2023-03-05T12:04:35;3.50;99.90
8180;DHT22;4131;48.810;11.892;2023-03-05T12:07:09;3.50;99.90
8180;DHT22;4131;48.810;11.892;2023-03-05T12:09:47;3.60;99.90
8180;DHT22;4131;48.810;11.892;2023-03-05T12:12:29;3.50;99.90
8180;DHT22;4131;48.810;11.892;2023-03-05T12:18:02;3.60;99.90
8180;DHT22;4131;48.810;11.892;2023-03-05T12:20:43;3.60;99.90
8180;DHT22;4131;48.810;11.892;2023-03-05T12:23:21;3.50;99.90
8180;DHT22;4131;48.810;11.892;2023-03-05T12:25:54;3.60;99.90
8180;DHT22;4131;48.810;11.892;2023-03-05T12:28:55;3.60;99.90
8180;DHT22;4131;48.810;11.892;2023-03-05T12:31:42;3.40;99.90
8180;DHT22;4131;48.810;11.892;2023-03-05T12:34:34;3.50;99.90
8180;DHT22;4131;48.810;11.892;2023-03-05T12:37:12;3.40;99.90
8180;DHT22;4131;48.810;11.892;2023-03-05T12:39:49;3.30;99.90
8180;DHT22;4131;48.810;11.892;2023-03-05T12:42:48;3.40;99.90
8180;DHT22;4131;48.810;11.892;2023-03-05T12:45:25;3.30;99.90
8180;DHT22;4131;48.810;11.892;2023-03-05T12:51:42;3.30;99.90
8180;DHT22;4131;48.810;11.892;2023-03-05T12:54:32;3.30;99.90
8180;DHT22;4131;48.810;11.892;2023-03-05T12:57:16;3.20;99.90
8180;DHT22;4131;48.810;11.892;2023-03-05T12:59:49;4.90;99.90
8180;DHT22;4131;48.810;11.892;2023-03-05T13:02:27;3.20;99.90
8180;DHT22;4131;48.810;11.892;2023-03-05T13:05:03;3.20;99.90
8180;DHT22;4131;48.810;11.892;2023-03-05T13:07:36;3.10;99.90
8180;DHT22;4131;48.810;11.892;2023-03-05T13:10:29;3.20;99.90
8180;DHT22;4131;48.810;11.892;2023-03-05T13:15:35;3.20;99.90
8180;DHT22;4131;48.810;11.892;2023-03-05T13:18:20;3.20;99.90
8180;DHT22;4131;48.810;11.892;2023-03-05T13:21:13;3.30;99.90
8180;DHT22;4131;48.810;11.892;2023-03-05T13:23:57;5.50;99.90
8180;DHT22;4131;48.810;11.892;2023-03-05T13:26:49;3.40;99.90
8180;DHT22;4131;48.810;11.892;2023-03-05T13:29:26;3.30;99.90
8180;DHT22;4131;48.810;11.892;2023-03-05T13:32:01;3.30;99.90
8180;DHT22;4131;48.810;11.892;2023-03-05T13:34:35;3.40;99.90
8180;DHT22;4131;48.810;11.892;2023-03-05T13:37:17;3.40;99.90
8180;DHT22;4131;48.810;11.892;2023-03-05T13:39:49;3.30;99.90
8180;DHT22;4131;48.810;11.892;2023-03-05T13:42:22;3.20;99.90
8180;DHT22;4131;48.810;11.892;2023-03-05T13:44:54;3.20;99.90
8180;DHT22;4131;48.810;11.892;2023-03-05T13:47:24;3.10;99.90
8180;DHT22;4131;48.810;11.892;2023-03-05T13:49:55;3.10;99.90
8180;DHT22;4131;48.810;11.892;2023-03-05T13:52:23;3.00;99.90
8180;DHT22;4131;48.810;11.892;2023-03-05T13:54:53;3.10;99.90
8180;DHT22;4131;48.810;11.892;2023-03-05T13:57:36;3.00;99.90
8180;DHT22;4131;48.810;11.892;2023-03-05T14:00:06;3.00;99.90
8180;DHT22;4131;48.810;11.892;2023-03-05T14:05:11;2.90;99.90
8180;DHT22;4131;48.810;11.892;2023-03-05T14:07:40;2.90;99.90
8180;DHT22;4131;48.810;11.892;2023-03-05T14:10:30;2.80;99.90
8180;DHT22;4131;48.810;11.892;2023-03-05T14:13:00;2.80;99.90
8180;DHT22;4131;48.810;11.892;2023-03-05T14:15:31;2.80;99.90
8180;DHT22;4131;48.810;11.892;2023-03-05T14:18:16;2.80;99.90
8180;DHT22;4131;48.810;11.892;2023-03-05T14:21:00;2.70;99.90
8180;DHT22;4131;48.810;11.892;2023-03-05T14:23:40;2.70;99.90
8180;DHT22;4131;48.810;11.892;2023-03-05T14:26:26;2.70;99.90
8180;DHT22;4131;48.810;11.892;2023-03-05T14:28:57;2.70;99.90
8180;DHT22;4131;48.810;11.892;2023-03-05T14:31:27;2.70;99.90
8180;DHT22;4131;48.810;11.892;2023-03-05T14:34:00;2.70;99.90
8180;DHT22;4131;48.810;11.892;2023-03-05T14:36:30;2.80;99.90
8180;DHT22;4131;48.810;11.892;2023-03-05T14:39:04;2.80;99.90
8180;DHT22;4131;48.810;11.892;2023-03-05T14:41:37;2.80;99.90
8180;DHT22;4131;48.810;11.892;2023-03-05T14:44:11;2.80;99.90
8180;DHT22;4131;48.810;11.892;2023-03-05T14:46:46;2.80;99.90
8180;DHT22;4131;48.810;11.892;2023-03-05T14:49:18;2.80;99.90
8180;DHT22;4131;48.810;11.892;2023-03-05T14:51:46;2.80;99.90
8180;DHT22;4131;48.810;11.892;2023-03-05T14:54:19;2.80;99.90
8180;DHT22;4131;48.810;11.892;2023-03-05T14:56:49;2.80;99.90
8180;DHT22;4131;48.810;11.892;2023-03-05T15:01:47;2.90;99.90
8180;DHT22;4131;48.810;11.892;2023-03-05T15:04:16;2.90;99.90
8180;DHT22;4131;48.810;11.892;2023-03-05T15:06:45;2.80;99.90
8180;DHT22;4131;48.810;11.892;2023-03-05T15:09:17;2.80;99.90
8180;DHT22;4131;48.810;11.892;2023-03-05T15:11:46;2.90;99.90
8180;DHT22;4131;48.810;11.892;2023-03-05T15:14:15;2.90;99.90
8180;DHT22;4131;48.810;11.892;2023-03-05T15:16:44;2.90;99.90
8180;DHT22;4131;48.810;11.892;2023-03-05T15:19:13;2.90;99.90
8180;DHT22;4131;48.810;11.892;2023-03-05T15:24:10;2.90;99.90
8180;DHT22;4131;48.810;11.892;2023-03-05T15:26:40;2.90;99.90
8180;DHT22;4131;48.810;11.892;2023-03-05T15:29:08;2.80;99.90
8180;DHT22;4131;48.810;11.892;2023-03-05T15:31:38;2.70;99.90
8180;DHT22;4131;48.810;11.892;2023-03-05T15:36:34;2.70;99.90
8180;DHT22;4131;48.810;11.892;2023-03-05T15:39:02;2.70;99.90
8180;DHT22;4131;48.810;11.892;2023-03-05T15:41:32;2.70;99.90
8180;DHT22;4131;48.810;11.892;2023-03-05T15:48:59;2.70;99.90
8180;DHT22;4131;48.810;11.892;2023-03-05T15:53:56;2.60;99.90
8180;DHT22;4131;48.810;11.892;2023-03-05T16:03:50;2.50;99.90
8180;DHT22;4131;48.810;11.892;2023-03-05T16:06:21;2.50;99.90
8180;DHT22;4131;48.810;11.892;2023-03-05T16:08:56;2.40;99.90
8180;DHT22;4131;48.810;11.892;2023-03-05T16:11:25;2.40;99.90
8180;DHT22;4131;48.810;11.892;2023-03-05T16:16:22;2.40;99.90
8180;DHT22;4131;48.810;11.892;2023-03-05T16:18:51;2.30;99.90
8180;DHT22;4131;48.810;11.892;2023-03-05T16:21:21;2.30;99.90
8180;DHT22;4131;48.810;11.892;2023-03-05T16:23:49;2.30;99.90
8180;DHT22;4131;48.810;11.892;2023-03-05T16:26:17;2.30;99.90
8180;DHT22;4131;48.810;11.892;2023-03-05T16:28:46;2.20;99.90
8180;DHT22;4131;48.810;11.892;2023-03-05T16:31:14;2.20;99.90
8180;DHT22;4131;48.810;11.892;2023-03-05T16:33:42;2.20;99.90
8180;DHT22;4131;48.810;11.892;2023-03-05T16:36:20;2.20;99.90
8180;DHT22;4131;48.810;11.892;2023-03-05T16:38:50;2.10;99.90
8180;DHT22;4131;48.810;11.892;2023-03-05T16:41:18;2.10;99.90
8180;DHT22;4131;48.810;11.892;2023-03-05T16:43:50;2.10;99.90
8180;DHT22;4131;48.810;11.892;2023-03-05T16:46:19;2.10;99.90
8180;DHT22;4131;48.810;11.892;2023-03-05T16:51:16;2.00;99.90
8180;DHT22;4131;48.810;11.892;2023-03-05T16:53:48;2.00;99.90
8180;DHT22;4131;48.810;11.892;2023-03-05T16:58:44;2.00;99.90
8180;DHT22;4131;48.810;11.892;2023-03-05T17:01:14;1.90;99.90
8180;DHT22;4131;48.810;11.892;2023-03-05T17:03:44;1.90;99.90
8180;DHT22;4131;48.810;11.892;2023-03-05T17:06:14;1.80;99.90
8180;DHT22;4131;48.810;11.892;2023-03-05T17:08:44;1.80;99.90
8180;DHT22;4131;48.810;11.892;2023-03-05T17:11:15;1.80;99.90
8180;DHT22;4131;48.810;11.892;2023-03-05T17:13:43;1.80;99.90
8180;DHT22;4131;48.810;11.892;2023-03-05T17:16:15;1.80;99.90
8180;DHT22;4131;48.810;11.892;2023-03-05T17:18:44;1.80;99.90
8180;DHT22;4131;48.810;11.892;2023-03-05T17:21:12;1.70;99.90
8180;DHT22;4131;48.810;11.892;2023-03-05T17:23:41;1.70;99.90
8180;DHT22;4131;48.810;11.892;2023-03-05T17:26:11;1.60;99.90
8180;DHT22;4131;48.810;11.892;2023-03-05T17:28:41;1.70;99.90
8180;DHT22;4131;48.810;11.892;2023-03-05T17:31:09;1.70;99.90
8180;DHT22;4131;48.810;11.892;2023-03-05T17:33:37;1.60;99.90
8180;DHT22;4131;48.810;11.892;2023-03-05T17:36:13;1.60;99.90
8180;DHT22;4131;48.810;11.892;2023-03-05T17:38:41;1.70;99.90
8180;DHT22;4131;48.810;11.892;2023-03-05T17:41:10;1.70;99.90
8180;DHT22;4131;48.810;11.892;2023-03-05T17:43:40;1.60;99.90
8180;DHT22;4131;48.810;11.892;2023-03-05T17:46:08;1.60;99.90
8180;DHT22;4131;48.810;11.892;2023-03-05T17:48:36;1.60;99.90
8180;DHT22;4131;48.810;11.892;2023-03-05T17:51:05;1.60;99.90
8180;DHT22;4131;48.810;11.892;2023-03-05T17:53:34;1.60;99.90
8180;DHT22;4131;48.810;11.892;2023-03-05T17:56:06;1.50;99.90
8180;DHT22;4131;48.810;11.892;2023-03-05T17:58:34;1.50;99.90
8180;DHT22;4131;48.810;11.892;2023-03-05T18:01:05;1.50;99.90
8180;DHT22;4131;48.810;11.892;2023-03-05T18:03:34;1.50;99.90
8180;DHT22;4131;48.810;11.892;2023-03-05T18:06:02;1.50;99.90
8180;DHT22;4131;48.810;11.892;2023-03-05T18:08:30;1.50;99.90
8180;DHT22;4131;48.810;11.892;2023-03-05T18:10:58;1.50;99.90
8180;DHT22;4131;48.810;11.892;2023-03-05T18:13:27;1.40;99.90
8180;DHT22;4131;48.810;11.892;2023-03-05T18:15:57;1.50;99.90
8180;DHT22;4131;48.810;11.892;2023-03-05T18:18:26;1.40;99.90
8180;DHT22;4131;48.810;11.892;2023-03-05T18:20:54;1.40;99.90
8180;DHT22;4131;48.810;11.892;2023-03-05T18:23:22;1.40;99.90
8180;DHT22;4131;48.810;11.892;2023-03-05T18:25:50;1.30;99.90
8180;DHT22;4131;48.810;11.892;2023-03-05T18:28:20;1.30;99.90
8180;DHT22;4131;48.810;11.892;2023-03-05T18:30:48;1.30;99.90
8180;DHT22;4131;48.810;11.892;2023-03-05T18:33:18;1.30;99.90
8180;DHT22;4131;48.810;11.892;2023-03-05T18:35:48;1.20;99.90
8180;DHT22;4131;48.810;11.892;2023-03-05T18:38:18;1.20;99.90
8180;DHT22;4131;48.810;11.892;2023-03-05T18:40:47;1.20;99.90
8180;DHT22;4131;48.810;11.892;2023-03-05T18:43:18;1.20;99.90
8180;DHT22;4131;48.810;11.892;2023-03-05T18:45:47;1.20;99.90
8180;DHT22;4131;48.810;11.892;2023-03-05T18:48:15;1.20;99.90
8180;DHT22;4131;48.810;11.892;2023-03-05T18:53:13;1.20;99.90
8180;DHT22;4131;48.810;11.892;2023-03-05T18:55:41;1.10;99.90
8180;DHT22;4131;48.810;11.892;2023-03-05T18:58:11;1.10;99.90
8180;DHT22;4131;48.810;11.892;2023-03-05T19:00:40;1.10;99.90
8180;DHT22;4131;48.810;11.892;2023-03-05T19:03:09;1.00;99.90
8180;DHT22;4131;48.810;11.892;2023-03-05T19:05:38;1.10;99.90
8180;DHT22;4131;48.810;11.892;2023-03-05T19:08:07;1.10;99.90
8180;DHT22;4131;48.810;11.892;2023-03-05T19:10:38;1.10;99.90
8180;DHT22;4131;48.810;11.892;2023-03-05T19:13:06;1.10;99.90
8180;DHT22;4131;48.810;11.892;2023-03-05T19:15:44;1.00;99.90
8180;DHT22;4131;48.810;11.892;2023-03-05T19:18:12;1.10;99.90
8180;DHT22;4131;48.810;11.892;2023-03-05T19:23:08;1.00;99.90
8180;DHT22;4131;48.810;11.892;2023-03-05T19:25:39;1.00;99.90
8180;DHT22;4131;48.810;11.892;2023-03-05T19:42:59;1.00;99.90
8180;DHT22;4131;48.810;11.892;2023-03-05T19:45:31;1.00;99.90
8180;DHT22;4131;48.810;11.892;2023-03-05T20:00:24;0.90;99.90
8180;DHT22;4131;48.810;11.892;2023-03-05T20:05:21;0.90;99.90
8180;DHT22;4131;48.810;11.892;2023-03-05T20:07:51;0.90;99.90
8180;DHT22;4131;48.810;11.892;2023-03-05T20:10:19;0.80;99.90
8180;DHT22;4131;48.810;11.892;2023-03-05T20:12:48;0.90;99.90
8180;DHT22;4131;48.810;11.892;2023-03-05T20:15:16;0.80;99.90
8180;DHT22;4131;48.810;11.892;2023-03-05T20:17:46;1.00;99.90
8180;DHT22;4131;48.810;11.892;2023-03-05T20:20:15;0.80;99.90
8180;DHT22;4131;48.810;11.892;2023-03-05T20:22:45;0.70;99.90
8180;DHT22;4131;48.810;11.892;2023-03-05T20:25:15;0.70;99.90
8180;DHT22;4131;48.810;11.892;2023-03-05T20:27:43;0.60;99.90
8180;DHT22;4131;48.810;11.892;2023-03-05T20:30:13;0.60;99.90
8180;DHT22;4131;48.810;11.892;2023-03-05T20:32:41;0.60;99.90
8180;DHT22;4131;48.810;11.892;2023-03-05T20:35:14;0.60;99.90
8180;DHT22;4131;48.810;11.892;2023-03-05T20:37:42;0.60;99.90
8180;DHT22;4131;48.810;11.892;2023-03-05T20:42:54;0.60;99.90
8180;DHT22;4131;48.810;11.892;2023-03-05T20:45:22;0.60;99.90
8180;DHT22;4131;48.810;11.892;2023-03-05T20:47:50;0.60;99.90
8180;DHT22;4131;48.810;11.892;2023-03-05T20:50:19;0.60;99.90
8180;DHT22;4131;48.810;11.892;2023-03-05T20:52:48;0.60;99.90
8180;DHT22;4131;48.810;11.892;2023-03-05T20:55:15;0.60;99.90
8180;DHT22;4131;48.810;11.892;2023-03-05T20:57:43;0.60;99.90
8180;DHT22;4131;48.810;11.892;2023-03-05T21:00:12;0.60;99.90
8180;DHT22;4131;48.810;11.892;2023-03-05T21:02:40;0.70;99.90
8180;DHT22;4131;48.810;11.892;2023-03-05T21:05:09;0.70;99.90
8180;DHT22;4131;48.810;11.892;2023-03-05T21:07:39;0.60;99.90
8180;DHT22;4131;48.810;11.892;2023-03-05T21:10:08;0.70;99.90
8180;DHT22;4131;48.810;11.892;2023-03-05T21:12:36;0.60;99.90
8180;DHT22;4131;48.810;11.892;2023-03-05T21:15:06;0.60;99.90
8180;DHT22;4131;48.810;11.892;2023-03-05T21:20:03;0.60;99.90
8180;DHT22;4131;48.810;11.892;2023-03-05T21:22:32;0.70;99.90
8180;DHT22;4131;48.810;11.892;2023-03-05T21:25:02;0.60;99.90
8180;DHT22;4131;48.810;11.892;2023-03-05T21:27:41;0.70;99.90
8180;DHT22;4131;48.810;11.892;2023-03-05T21:30:10;0.60;99.90
8180;DHT22;4131;48.810;11.892;2023-03-05T21:35:10;0.60;99.90
8180;DHT22;4131;48.810;11.892;2023-03-05T21:37:38;0.60;99.90
8180;DHT22;4131;48.810;11.892;2023-03-05T21:40:11;0.60;99.90
8180;DHT22;4131;48.810;11.892;2023-03-05T21:45:10;0.50;99.90
8180;DHT22;4131;48.810;11.892;2023-03-05T21:47:39;0.50;99.90
8180;DHT22;4131;48.810;11.892;2023-03-05T21:50:09;0.50;99.90
8180;DHT22;4131;48.810;11.892;2023-03-05T21:52:38;0.50;99.90
8180;DHT22;4131;48.810;11.892;2023-03-05T21:57:35;0.50;99.90
8180;DHT22;4131;48.810;11.892;2023-03-05T22:00:04;0.50;99.90
8180;DHT22;4131;48.810;11.892;2023-03-05T22:02:34;0.50;99.90
8180;DHT22;4131;48.810;11.892;2023-03-05T22:07:30;0.40;99.90
8180;DHT22;4131;48.810;11.892;2023-03-05T22:09:58;0.50;99.90
8180;DHT22;4131;48.810;11.892;2023-03-05T22:12:26;0.40;99.90
8180;DHT22;4131;48.810;11.892;2023-03-05T22:15:10;0.40;99.90
8180;DHT22;4131;48.810;11.892;2023-03-05T22:17:38;0.40;99.90
8180;DHT22;4131;48.810;11.892;2023-03-05T22:20:07;0.40;99.90
8180;DHT22;4131;48.810;11.892;2023-03-05T22:25:04;0.40;99.90
8180;DHT22;4131;48.810;11.892;2023-03-05T22:27:33;0.40;99.90
8180;DHT22;4131;48.810;11.892;2023-03-05T22:30:01;0.40;99.90
8180;DHT22;4131;48.810;11.892;2023-03-05T22:32:33;0.40;99.90
8180;DHT22;4131;48.810;11.892;2023-03-05T22:35:02;0.40;99.90
8180;DHT22;4131;48.810;11.892;2023-03-05T22:37:31;0.40;99.90
8180;DHT22;4131;48.810;11.892;2023-03-05T22:39:59;0.40;99.90
8180;DHT22;4131;48.810;11.892;2023-03-05T22:44:55;0.40;99.90
8180;DHT22;4131;48.810;11.892;2023-03-05T22:47:24;0.40;99.90
8180;DHT22;4131;48.810;11.892;2023-03-05T22:49:54;0.40;99.90
8180;DHT22;4131;48.810;11.892;2023-03-05T22:54:51;0.30;99.90
8180;DHT22;4131;48.810;11.892;2023-03-05T22:57:21;0.30;99.90
8180;DHT22;4131;48.810;11.892;2023-03-05T22:59:49;0.30;99.90
8180;DHT22;4131;48.810;11.892;2023-03-05T23:07:18;0.30;99.90
8180;DHT22;4131;48.810;11.892;2023-03-05T23:09:50;0.20;99.90
8180;DHT22;4131;48.810;11.892;2023-03-05T23:14:47;0.30;99.90
8180;DHT22;4131;48.810;11.892;2023-03-05T23:22:12;0.30;99.90
8180;DHT22;4131;48.810;11.892;2023-03-05T23:24:42;0.30;99.90
8180;DHT22;4131;48.810;11.892;2023-03-05T23:27:13;0.30;99.90